createdAt,value
2023-02-04T00:00:16.334Z,13.95
2023-02-04T00:02:43.499Z,14.18
2023-02-04T00:05:11.960Z,12.77
2023-02-04T00:07:41.208Z,12.65
2023-02-04T00:10:09.276Z,16.17
2023-02-04T00:12:36.605Z,13.18
2023-02-04T00:15:04.449Z,13.43
2023-02-04T00:17:31.664Z,11.85
2023-02-04T00:19:58.598Z,12.57
2023-02-04T00:22:28.294Z,13.85
2023-02-04T00:24:55.305Z,14.18
2023-02-04T00:27:22.453Z,15.65
2023-02-04T00:29:49.384Z,12.25
2023-02-04T00:32:16.493Z,10.65
2023-02-04T00:34:43.593Z,15.98
2023-02-04T00:37:10.585Z,13.63
2023-02-04T00:39:38.370Z,12.50
2023-02-04T00:42:06.852Z,14.80
2023-02-04T00:44:36.690Z,15.23
2023-02-04T00:47:04.456Z,13.70
2023-02-04T00:49:33.272Z,15.75
2023-02-04T00:52:00.378Z,16.80
2023-02-04T00:54:27.872Z,13.38
2023-02-04T00:56:54.865Z,17.13
2023-02-04T00:59:22.578Z,16.30
2023-02-04T01:01:49.722Z,20.60
2023-02-04T01:04:16.637Z,15.05
2023-02-04T01:06:44.267Z,15.27
2023-02-04T01:09:11.700Z,17.08
2023-02-04T01:11:38.767Z,17.13
2023-02-04T01:14:06.528Z,18.83
2023-02-04T01:16:33.735Z,18.08
2023-02-04T01:19:00.835Z,18.05
2023-02-04T01:21:27.909Z,19.95
2023-02-04T01:23:54.924Z,17.80
2023-02-04T01:26:22.549Z,20.73
2023-02-04T01:28:50.052Z,22.48
2023-02-04T01:31:17.484Z,19.25
2023-02-04T01:33:44.588Z,20.08
2023-02-04T01:36:12.535Z,19.95
2023-02-04T01:38:39.473Z,17.00
2023-02-04T01:41:06.819Z,19.30
2023-02-04T01:43:34.191Z,19.25
2023-02-04T01:46:02.650Z,18.80
2023-02-04T01:48:29.953Z,19.42
2023-02-04T01:51:09.399Z,19.98
2023-02-04T01:53:37.145Z,20.33
2023-02-04T01:56:22.418Z,20.13
2023-02-04T01:58:50.057Z,18.65
2023-02-04T02:01:47.194Z,18.95
2023-02-04T02:04:20.882Z,21.05
2023-02-04T02:06:52.852Z,18.48
2023-02-04T02:09:20.073Z,18.10
2023-02-04T02:11:47.919Z,21.58
2023-02-04T02:14:15.640Z,20.60
2023-02-04T02:16:42.774Z,19.85
2023-02-04T02:19:16.089Z,19.27
2023-02-04T02:21:49.575Z,20.13
2023-02-04T02:24:27.502Z,21.55
2023-02-04T02:26:56.561Z,21.63
2023-02-04T02:29:25.943Z,21.80
2023-02-04T02:31:53.897Z,20.85
2023-02-04T02:34:20.880Z,22.73
2023-02-04T02:36:47.841Z,21.15
2023-02-04T02:39:15.055Z,20.85
2023-02-04T02:41:42.155Z,24.08
2023-02-04T02:44:11.312Z,22.23
2023-02-04T02:46:38.456Z,21.90
2023-02-04T02:49:06.012Z,19.38
2023-02-04T02:51:33.008Z,20.80
2023-02-04T02:54:00.000Z,19.95
2023-02-04T02:56:27.040Z,24.63
2023-02-04T02:58:54.052Z,30.55
2023-02-04T03:01:21.166Z,22.50
2023-02-04T03:03:52.001Z,25.85
2023-02-04T03:06:23.581Z,21.85
2023-02-04T03:08:55.170Z,25.52
2023-02-04T03:11:22.997Z,23.95
2023-02-04T03:13:51.419Z,24.73
2023-02-04T03:16:18.911Z,26.70
2023-02-04T03:18:45.861Z,24.58
2023-02-04T03:21:12.859Z,23.77
2023-02-04T03:23:39.897Z,21.75
2023-02-04T03:26:07.292Z,23.50
2023-02-04T03:28:34.518Z,20.75
2023-02-04T03:31:02.189Z,24.48
2023-02-04T03:33:31.527Z,22.08
2023-02-04T03:35:59.166Z,25.08
2023-02-04T03:38:26.496Z,20.75
2023-02-04T03:40:53.409Z,21.25
2023-02-04T03:43:20.367Z,24.02
2023-02-04T03:45:47.428Z,22.95
2023-02-04T03:48:14.460Z,20.65
2023-02-04T03:50:41.525Z,19.80
2023-02-04T03:53:08.955Z,23.30
2023-02-04T03:55:36.110Z,24.65
2023-02-04T03:58:04.340Z,22.35
2023-02-04T04:00:33.025Z,21.30
2023-02-04T04:03:00.767Z,21.80
2023-02-04T04:05:28.710Z,20.55
2023-02-04T04:07:55.867Z,20.35
2023-02-04T04:10:22.866Z,24.55
2023-02-04T04:12:49.830Z,19.20
2023-02-04T04:15:17.004Z,20.70
2023-02-04T04:17:43.959Z,19.48
2023-02-04T04:20:11.399Z,19.02
2023-02-04T04:22:38.795Z,19.70
2023-02-04T04:25:06.282Z,20.80
2023-02-04T04:27:33.308Z,19.63
2023-02-04T04:30:00.378Z,21.40
2023-02-04T04:32:27.366Z,19.95
2023-02-04T04:34:54.302Z,23.98
2023-02-04T04:37:21.261Z,21.05
2023-02-04T04:39:48.138Z,20.42
2023-02-04T04:42:15.137Z,20.27
2023-02-04T04:44:42.068Z,21.25
2023-02-04T04:47:09.089Z,21.08
2023-02-04T04:49:36.051Z,20.67
2023-02-04T04:52:03.055Z,21.20
2023-02-04T04:54:29.987Z,19.35
2023-02-04T04:56:56.888Z,19.13
2023-02-04T04:59:23.825Z,21.77
2023-02-04T05:01:50.734Z,19.65
2023-02-04T05:04:17.699Z,21.88
2023-02-04T05:06:45.199Z,19.63
2023-02-04T05:09:12.201Z,18.90
2023-02-04T05:11:39.105Z,21.08
2023-02-04T05:14:06.076Z,20.60
2023-02-04T05:16:33.115Z,17.40
2023-02-04T05:19:00.125Z,20.45
2023-02-04T05:21:27.036Z,17.33
2023-02-04T05:23:53.952Z,21.05
2023-02-04T05:26:29.814Z,18.38
2023-02-04T05:28:57.378Z,16.98
2023-02-04T05:31:24.451Z,16.17
2023-02-04T05:33:51.528Z,15.73
2023-02-04T05:36:18.538Z,15.32
2023-02-04T05:38:45.440Z,17.45
2023-02-04T05:41:12.677Z,16.35
2023-02-04T05:43:39.912Z,16.77
2023-02-04T05:46:06.949Z,12.73
2023-02-04T05:48:33.956Z,13.07
2023-02-04T05:51:00.852Z,16.08
2023-02-04T05:53:27.796Z,17.92
2023-02-04T05:55:54.702Z,21.40
2023-02-04T05:58:21.641Z,25.08
2023-02-04T06:00:48.575Z,15.32
2023-02-04T06:03:15.588Z,12.50
2023-02-04T06:05:44.217Z,17.90
2023-02-04T06:08:11.287Z,16.20
2023-02-04T06:10:38.228Z,15.13
2023-02-04T06:13:05.138Z,16.95
2023-02-04T06:15:32.068Z,17.35
2023-02-04T06:17:59.019Z,15.85
2023-02-04T06:20:26.093Z,15.05
2023-02-04T06:22:54.427Z,13.30
2023-02-04T06:25:22.495Z,16.63
2023-02-04T06:27:49.815Z,16.58
2023-02-04T06:30:17.665Z,14.43
2023-02-04T06:32:44.737Z,14.82
2023-02-04T06:35:13.232Z,14.90
2023-02-04T06:37:40.200Z,14.35
2023-02-04T06:40:08.718Z,12.65
2023-02-04T06:42:35.674Z,13.88
2023-02-04T06:45:03.008Z,14.63
2023-02-04T06:47:29.969Z,12.70
2023-02-04T06:49:56.929Z,12.18
2023-02-04T06:52:23.871Z,11.27
2023-02-04T06:54:50.840Z,13.40
2023-02-04T06:57:17.755Z,14.60
2023-02-04T06:59:44.748Z,11.82
2023-02-04T07:02:12.441Z,12.65
2023-02-04T07:04:39.451Z,13.38
2023-02-04T07:07:06.356Z,12.93
2023-02-04T07:09:33.384Z,11.05
2023-02-04T07:12:00.416Z,15.13
2023-02-04T07:14:27.474Z,27.70
2023-02-04T07:16:54.382Z,13.93
2023-02-04T07:19:21.420Z,15.32
2023-02-04T07:21:48.422Z,17.33
2023-02-04T07:24:15.338Z,14.95
2023-02-04T07:26:42.257Z,20.10
2023-02-04T07:29:14.869Z,15.13
2023-02-04T07:31:48.277Z,16.58
2023-02-04T07:34:15.780Z,19.38
2023-02-04T07:36:42.855Z,13.77
2023-02-04T07:39:10.264Z,16.67
2023-02-04T07:41:37.597Z,17.05
2023-02-04T07:44:04.717Z,14.75
2023-02-04T07:46:31.672Z,16.75
2023-02-04T07:48:58.810Z,15.85
2023-02-04T07:51:27.764Z,17.80
2023-02-04T07:53:55.961Z,16.23
2023-02-04T07:56:23.001Z,16.67
2023-02-04T07:58:50.210Z,13.95
2023-02-04T08:01:17.337Z,13.63
2023-02-04T08:03:44.479Z,15.77
2023-02-04T08:06:11.432Z,14.13
2023-02-04T08:08:38.428Z,15.48
2023-02-04T08:11:05.725Z,14.85
2023-02-04T08:13:32.674Z,14.25
2023-02-04T08:15:59.690Z,16.75
2023-02-04T08:18:26.696Z,14.73
2023-02-04T08:20:53.713Z,14.85
2023-02-04T08:23:20.996Z,14.32
2023-02-04T08:25:48.067Z,14.77
2023-02-04T08:28:15.144Z,13.55
2023-02-04T08:30:42.214Z,12.77
2023-02-04T08:33:09.235Z,11.15
2023-02-04T08:35:36.119Z,10.18
2023-02-04T08:38:03.099Z,11.13
2023-02-04T08:40:30.299Z,11.20
2023-02-04T08:42:57.344Z,14.40
2023-02-04T08:45:24.246Z,10.35
2023-02-04T08:47:51.142Z,9.18
2023-02-04T08:50:18.394Z,9.27
2023-02-04T08:52:45.382Z,12.88
2023-02-04T08:55:12.641Z,8.80
2023-02-04T08:57:39.663Z,7.50
2023-02-04T09:00:06.939Z,7.30
2023-02-04T09:02:33.849Z,8.80
2023-02-04T09:05:00.907Z,7.20
2023-02-04T09:07:27.845Z,7.03
2023-02-04T09:09:54.891Z,10.80
2023-02-04T09:12:21.816Z,7.10
2023-02-04T09:14:48.904Z,7.90
2023-02-04T09:17:15.844Z,5.85
2023-02-04T09:19:42.844Z,4.43
2023-02-04T09:22:09.867Z,5.78
2023-02-04T09:24:36.823Z,4.50
2023-02-04T09:27:03.867Z,4.82
2023-02-04T09:29:30.931Z,7.40
2023-02-04T09:31:58.339Z,5.25
2023-02-04T09:34:25.370Z,5.28
2023-02-04T09:36:52.258Z,4.40
2023-02-04T09:39:19.167Z,4.13
2023-02-04T09:41:46.043Z,3.92
2023-02-04T09:44:17.668Z,3.17
2023-02-04T09:46:50.856Z,2.67
2023-02-04T09:49:17.977Z,3.88
2023-02-04T09:51:46.833Z,1.45
2023-02-04T09:54:17.163Z,2.67
2023-02-04T09:56:44.342Z,5.93
2023-02-04T09:59:16.877Z,2.08
2023-02-04T10:01:44.060Z,3.67
2023-02-04T10:04:14.269Z,2.38
2023-02-04T10:06:43.619Z,11.40
2023-02-04T10:09:16.036Z,3.60
2023-02-04T10:11:44.608Z,0.88
2023-02-04T10:14:19.561Z,3.17
2023-02-04T10:16:58.491Z,1.45
2023-02-04T10:19:28.428Z,2.15
2023-02-04T10:21:56.703Z,4.57
2023-02-04T10:24:26.485Z,10.40
2023-02-04T10:26:54.295Z,1.98
2023-02-04T10:29:25.713Z,2.95
2023-02-04T10:31:53.453Z,1.27
2023-02-04T10:34:21.756Z,2.53
2023-02-04T10:36:54.510Z,1.73
2023-02-04T10:39:24.149Z,0.40
2023-02-04T10:41:53.709Z,2.08
2023-02-04T10:44:26.830Z,0.35
2023-02-04T10:47:15.201Z,0.95
2023-02-04T10:49:52.011Z,1.90
2023-02-04T10:52:21.427Z,0.75
2023-02-04T10:54:48.793Z,2.50
2023-02-04T10:57:23.308Z,3.10
2023-02-04T10:59:53.736Z,1.25
2023-02-04T11:02:39.697Z,0.82
2023-02-04T11:07:38.499Z,2.15
2023-02-04T11:10:06.020Z,2.05
2023-02-04T11:12:41.374Z,0.30
2023-02-04T11:15:50.413Z,1.08
2023-02-04T11:18:20.856Z,5.18
2023-02-04T11:20:49.314Z,2.50
2023-02-04T11:23:26.474Z,0.30
2023-02-04T11:26:08.003Z,6.15
2023-02-04T11:28:40.818Z,0.75
2023-02-04T11:31:20.085Z,2.40
2023-02-04T11:33:48.949Z,0.50
2023-02-04T11:36:17.066Z,3.20
2023-02-04T11:38:47.161Z,2.47
2023-02-04T11:41:29.274Z,0.40
2023-02-04T11:43:57.881Z,0.60
2023-02-04T11:46:28.443Z,10.75
2023-02-04T11:48:58.334Z,0.80
2023-02-04T11:51:34.925Z,1.92
2023-02-04T11:54:01.953Z,3.90
2023-02-04T11:56:30.138Z,3.47
2023-02-04T11:58:58.695Z,1.88
2023-02-04T12:01:32.211Z,1.77
2023-02-04T12:04:01.901Z,1.70
2023-02-04T12:06:33.130Z,1.90
2023-02-04T12:09:07.718Z,2.20
2023-02-04T12:11:35.479Z,0.60
2023-02-04T12:14:12.848Z,1.98
2023-02-04T12:16:53.013Z,2.75
2023-02-04T12:19:20.091Z,2.63
2023-02-04T12:21:47.129Z,1.23
2023-02-04T12:24:14.141Z,2.03
2023-02-04T12:26:41.053Z,1.45
2023-02-04T12:29:09.478Z,3.50
2023-02-04T12:31:36.621Z,0.73
2023-02-04T12:34:03.605Z,2.38
2023-02-04T12:36:30.561Z,2.42
2023-02-04T12:39:00.360Z,1.95
2023-02-04T12:41:28.411Z,2.28
2023-02-04T12:43:55.797Z,0.30
2023-02-04T12:46:23.387Z,2.55
2023-02-04T12:48:50.414Z,1.55
2023-02-04T12:51:17.375Z,2.33
2023-02-04T12:53:44.353Z,0.70
2023-02-04T12:56:11.443Z,8.25
2023-02-04T12:58:38.355Z,0.70
2023-02-04T13:01:05.415Z,0.65
2023-02-04T13:03:33.016Z,1.75
2023-02-04T13:06:00.113Z,1.55
2023-02-04T13:08:27.053Z,1.92
2023-02-04T13:10:54.022Z,2.03
2023-02-04T13:13:22.365Z,2.50
2023-02-04T13:15:49.454Z,2.95
2023-02-04T13:18:18.388Z,1.85
2023-02-04T13:20:46.120Z,1.35
2023-02-04T13:23:14.088Z,2.20
2023-02-04T13:25:41.034Z,2.50
2023-02-04T13:28:08.073Z,1.58
2023-02-04T13:30:35.103Z,0.80
2023-02-04T13:33:02.246Z,1.05
2023-02-04T13:35:29.210Z,0.73
2023-02-04T13:37:56.634Z,2.50
2023-02-04T13:40:23.651Z,0.80
2023-02-04T13:42:50.630Z,4.13
2023-02-04T13:45:19.238Z,2.58
2023-02-04T13:47:48.055Z,3.03
2023-02-04T13:50:16.742Z,1.50
2023-02-04T13:52:43.746Z,0.30
2023-02-04T13:55:11.016Z,2.50
2023-02-04T13:57:38.012Z,2.80
2023-02-04T14:00:07.293Z,3.08
2023-02-04T14:02:39.521Z,1.15
2023-02-04T14:05:06.810Z,3.30
2023-02-04T14:07:34.092Z,0.98
2023-02-04T14:10:01.133Z,5.40
2023-02-04T14:12:28.080Z,0.55
2023-02-04T14:14:54.979Z,1.95
2023-02-04T14:17:22.009Z,0.73
2023-02-04T14:19:48.946Z,0.60
2023-02-04T14:22:16.063Z,0.90
2023-02-04T14:24:43.009Z,9.68
2023-02-04T14:27:10.890Z,2.83
2023-02-04T14:29:37.844Z,1.17
2023-02-04T14:32:04.998Z,1.58
2023-02-04T14:34:31.966Z,7.90
2023-02-04T14:36:58.895Z,1.48
2023-02-04T14:39:25.859Z,4.03
2023-02-04T14:41:52.926Z,3.15
2023-02-04T14:44:20.997Z,8.57
2023-02-04T14:46:49.001Z,1.75
2023-02-04T14:49:16.956Z,3.28
2023-02-04T14:51:44.419Z,1.17
2023-02-04T14:54:11.436Z,1.17
2023-02-04T14:56:38.618Z,1.33
2023-02-04T14:59:05.959Z,1.27
2023-02-04T15:01:32.943Z,1.73
2023-02-04T15:04:00.026Z,5.03
2023-02-04T15:06:26.995Z,21.15
2023-02-04T15:08:54.007Z,4.00
2023-02-04T15:11:21.051Z,11.35
2023-02-04T15:13:48.057Z,1.23
2023-02-04T15:16:15.221Z,3.30
2023-02-04T15:18:42.435Z,7.80
2023-02-04T15:21:09.498Z,12.90
2023-02-04T15:23:36.420Z,2.40
2023-02-04T15:26:03.872Z,0.82
2023-02-04T15:28:31.406Z,2.65
2023-02-04T15:30:58.655Z,5.05
2023-02-04T15:33:25.808Z,2.80
2023-02-04T15:35:52.732Z,2.08
2023-02-04T15:38:22.529Z,3.83
2023-02-04T15:40:49.494Z,2.85
2023-02-04T15:43:16.458Z,2.38
2023-02-04T15:45:43.989Z,3.38
2023-02-04T15:48:11.366Z,1.75
2023-02-04T15:50:39.258Z,1.10
2023-02-04T15:53:06.783Z,1.70
2023-02-04T15:55:34.107Z,2.05
2023-02-04T15:58:01.055Z,2.55
2023-02-04T16:00:28.030Z,1.55
2023-02-04T16:02:54.947Z,6.10
2023-02-04T16:05:21.948Z,2.45
2023-02-04T16:07:49.031Z,3.17
2023-02-04T16:10:18.325Z,0.75
2023-02-04T16:12:47.322Z,1.77
2023-02-04T16:15:15.182Z,4.22
2023-02-04T16:17:42.592Z,2.20
2023-02-04T16:20:10.834Z,3.47
2023-02-04T16:22:37.880Z,2.20
2023-02-04T16:25:05.476Z,4.15
2023-02-04T16:27:33.791Z,1.77
2023-02-04T16:30:01.412Z,2.83
2023-02-04T16:32:28.633Z,2.40
2023-02-04T16:34:56.814Z,5.32
2023-02-04T16:37:23.823Z,9.65
2023-02-04T16:39:51.572Z,3.90
2023-02-04T16:42:18.660Z,3.33
2023-02-04T16:44:45.631Z,2.75
2023-02-04T16:47:12.772Z,4.05
2023-02-04T16:49:40.198Z,3.17
2023-02-04T16:52:07.246Z,3.70
2023-02-04T16:54:35.323Z,18.90
2023-02-04T16:57:03.709Z,2.28
2023-02-04T16:59:32.043Z,4.20
2023-02-04T17:02:00.632Z,5.32
2023-02-04T17:04:28.155Z,3.65
2023-02-04T17:06:55.324Z,3.38
2023-02-04T17:09:22.354Z,1.17
2023-02-04T17:11:49.536Z,3.10
2023-02-04T17:14:16.478Z,2.60
2023-02-04T17:16:44.209Z,9.02
2023-02-04T17:19:11.943Z,3.30
2023-02-04T17:21:39.729Z,4.72
2023-02-04T17:24:07.986Z,4.10
2023-02-04T17:26:39.671Z,3.90
2023-02-04T17:29:08.432Z,2.97
2023-02-04T17:31:35.591Z,3.75
2023-02-04T17:34:03.277Z,2.47
2023-02-04T17:36:31.310Z,1.85
2023-02-04T17:38:58.363Z,5.95
2023-02-04T17:41:25.922Z,2.13
2023-02-04T17:43:52.898Z,2.17
2023-02-04T17:46:20.303Z,0.73
2023-02-04T17:48:47.405Z,2.28
2023-02-04T17:51:14.529Z,2.67
2023-02-04T17:53:41.880Z,3.75
2023-02-04T17:56:14.252Z,1.67
2023-02-04T17:58:42.283Z,3.00
2023-02-04T18:01:15.807Z,3.45
2023-02-04T18:03:43.392Z,1.25
2023-02-04T18:06:29.063Z,1.60
2023-02-04T18:09:01.578Z,1.95
2023-02-04T18:11:32.980Z,1.80
2023-02-04T18:14:05.450Z,2.55
2023-02-04T18:16:34.587Z,0.90
2023-02-04T18:19:22.370Z,1.02
2023-02-04T18:21:51.200Z,7.28
2023-02-04T18:24:20.076Z,2.03
2023-02-04T18:26:50.332Z,2.97
2023-02-04T18:29:23.142Z,2.65
2023-02-04T18:31:57.083Z,3.83
2023-02-04T18:34:37.155Z,1.60
2023-02-04T18:37:22.776Z,0.63
2023-02-04T18:39:49.782Z,3.00
2023-02-04T18:42:24.277Z,1.52
2023-02-04T18:44:52.512Z,1.65
2023-02-04T18:47:26.919Z,3.10
2023-02-04T18:49:53.934Z,2.50
2023-02-04T18:52:22.174Z,3.00
2023-02-04T18:54:54.016Z,6.65
2023-02-04T18:57:36.660Z,8.60
2023-02-04T19:00:09.657Z,8.75
2023-02-04T19:02:39.510Z,20.55
2023-02-04T19:05:35.672Z,46.60
2023-02-04T19:08:05.935Z,67.78
2023-02-04T19:10:41.056Z,71.28
2023-02-04T19:13:25.686Z,85.45
2023-02-04T19:16:12.480Z,95.45
2023-02-04T19:18:43.930Z,98.65
2023-02-04T19:21:21.719Z,95.57
2023-02-04T19:23:50.576Z,106.13
2023-02-04T19:26:33.622Z,100.05
2023-02-04T19:29:01.028Z,117.00
2023-02-04T19:31:34.666Z,126.07
2023-02-04T19:34:21.488Z,119.93
2023-02-04T19:36:48.446Z,124.07
2023-02-04T19:39:38.591Z,119.78
2023-02-04T19:42:44.157Z,122.03
2023-02-04T19:45:25.383Z,124.40
2023-02-04T19:47:54.851Z,127.68
2023-02-04T19:50:29.872Z,122.78
2023-02-04T19:53:09.576Z,120.53
2023-02-04T19:55:45.422Z,118.60
2023-02-04T19:58:28.704Z,120.05
2023-02-04T20:00:58.904Z,117.30
2023-02-04T20:03:31.393Z,121.55
2023-02-04T20:06:18.320Z,126.43
2023-02-04T20:08:49.350Z,122.47
2023-02-04T20:11:29.365Z,114.70
2023-02-04T20:14:07.674Z,123.18
2023-02-04T20:16:48.053Z,113.72
2023-02-04T20:19:20.910Z,114.75
2023-02-04T20:21:55.296Z,114.00
2023-02-04T20:24:22.312Z,114.95
2023-02-04T20:26:52.716Z,119.03
2023-02-04T20:29:23.195Z,107.75
2023-02-04T20:31:50.294Z,110.15
2023-02-04T20:34:23.092Z,121.40
2023-02-04T20:36:52.272Z,109.47
2023-02-04T20:39:29.841Z,122.78
2023-02-04T20:42:18.961Z,118.13
2023-02-04T20:44:46.981Z,113.75
2023-02-04T20:47:22.408Z,106.93
2023-02-04T20:49:57.556Z,118.75
2023-02-04T20:52:47.527Z,112.40
2023-02-04T20:55:23.225Z,108.38
2023-02-04T21:00:31.699Z,114.50
2023-02-04T21:03:18.895Z,117.85
2023-02-04T21:05:47.490Z,117.63
2023-02-04T21:08:43.478Z,117.75
2023-02-04T21:11:10.488Z,120.50
2023-02-04T21:13:37.635Z,117.43
2023-02-04T21:16:05.107Z,107.55
2023-02-04T21:18:34.582Z,113.50
2023-02-04T21:21:02.977Z,111.53
2023-02-04T21:23:29.967Z,108.60
2023-02-04T21:25:56.972Z,99.18
2023-02-04T21:28:24.014Z,103.72
2023-02-04T21:30:50.997Z,99.22
2023-02-04T21:33:18.132Z,92.80
2023-02-04T21:35:45.147Z,89.25
2023-02-04T21:38:12.176Z,92.78
2023-02-04T21:40:39.292Z,90.65
2023-02-04T21:43:08.241Z,87.65
2023-02-04T21:45:39.703Z,89.90
2023-02-04T21:48:07.938Z,77.50
2023-02-04T21:50:36.410Z,82.03
2023-02-04T21:53:03.307Z,73.47
2023-02-04T21:55:30.438Z,78.38
2023-02-04T21:57:57.579Z,76.70
2023-02-04T22:00:24.588Z,79.55
2023-02-04T22:02:52.991Z,71.50
2023-02-04T22:05:21.428Z,63.92
2023-02-04T22:07:48.916Z,66.32
2023-02-04T22:10:19.303Z,64.90
2023-02-04T22:12:46.288Z,59.28
2023-02-04T22:15:24.083Z,55.42
2023-02-04T22:17:53.045Z,59.20
2023-02-04T22:20:22.463Z,51.95
2023-02-04T22:22:50.096Z,51.85
2023-02-04T22:25:19.554Z,51.58
2023-02-04T22:27:46.844Z,54.50
2023-02-04T22:30:15.766Z,49.92
2023-02-04T22:32:42.927Z,45.78
2023-02-04T22:35:11.339Z,45.78
2023-02-04T22:37:40.903Z,43.65
2023-02-04T22:40:10.027Z,40.80
2023-02-04T22:42:37.140Z,38.33
2023-02-04T22:45:05.124Z,34.92
2023-02-04T22:47:32.117Z,40.30
2023-02-04T22:49:59.137Z,34.00
2023-02-04T22:52:26.245Z,31.85
2023-02-04T22:54:53.316Z,31.27
2023-02-04T22:57:20.380Z,30.90
2023-02-04T22:59:47.359Z,31.90
2023-02-04T23:02:14.429Z,33.30
2023-02-04T23:04:43.890Z,34.80
2023-02-04T23:07:12.357Z,30.40
2023-02-04T23:09:39.515Z,27.92
2023-02-04T23:12:15.570Z,31.63
2023-02-04T23:14:47.887Z,30.52
2023-02-04T23:17:16.297Z,31.48
2023-02-04T23:19:44.060Z,26.30
2023-02-04T23:22:12.399Z,23.77
2023-02-04T23:24:40.641Z,23.50
2023-02-04T23:27:09.373Z,27.38
2023-02-04T23:29:36.272Z,27.70
2023-02-04T23:32:03.690Z,29.15
2023-02-04T23:34:31.368Z,28.67
2023-02-04T23:36:58.336Z,25.98
2023-02-04T23:39:25.508Z,24.02
2023-02-04T23:41:52.504Z,24.17
2023-02-04T23:44:19.635Z,23.17
2023-02-04T23:46:46.558Z,20.23
2023-02-04T23:49:13.886Z,22.33
2023-02-04T23:51:40.997Z,23.08
2023-02-04T23:54:07.944Z,17.58
2023-02-04T23:56:35.101Z,18.67
2023-02-04T23:59:02.130Z,17.20
